createdAt,value
2018-11-28T00:01:14.394Z,58.20
2018-11-28T00:03:42.618Z,58.30
2018-11-28T00:06:11.784Z,58.50
2018-11-28T00:08:40.096Z,58.50
2018-11-28T00:11:08.384Z,58.30
2018-11-28T00:13:36.656Z,58.60
2018-11-28T00:16:05.827Z,58.60
2018-11-28T00:18:34.005Z,58.70
2018-11-28T00:21:02.213Z,58.40
2018-11-28T00:23:30.415Z,58.50
2018-11-28T00:25:58.921Z,58.70
2018-11-28T00:28:26.943Z,58.50
2018-11-28T00:30:55.731Z,58.70
2018-11-28T00:33:23.974Z,58.80
2018-11-28T00:35:52.320Z,58.70
2018-11-28T00:38:20.500Z,58.60
2018-11-28T00:40:48.785Z,58.50
2018-11-28T00:43:17.068Z,58.60
2018-11-28T00:45:45.318Z,58.60
2018-11-28T00:48:13.502Z,58.70
2018-11-28T00:50:41.757Z,58.80
2018-11-28T00:53:10.028Z,58.70
2018-11-28T00:55:39.325Z,58.70
2018-11-28T00:58:07.614Z,58.50
2018-11-28T01:00:35.845Z,58.60
2018-11-28T01:03:04.071Z,58.70
2018-11-28T01:05:32.245Z,58.70
2018-11-28T01:08:00.432Z,58.70
2018-11-28T01:10:28.639Z,58.90
2018-11-28T01:12:56.836Z,58.80
2018-11-28T01:15:25.004Z,59.00
2018-11-28T01:17:53.239Z,59.50
2018-11-28T01:20:22.728Z,58.90
2018-11-28T01:22:50.958Z,59.10
2018-11-28T01:25:20.808Z,59.00
2018-11-28T01:27:50.360Z,58.90
2018-11-28T01:30:21.860Z,59.00
2018-11-28T01:32:50.124Z,59.20
2018-11-28T01:35:19.260Z,59.30
2018-11-28T01:37:48.603Z,59.20
2018-11-28T01:40:19.652Z,59.40
2018-11-28T01:42:47.948Z,59.30
2018-11-28T01:45:17.094Z,59.10
2018-11-28T01:47:45.372Z,59.20
2018-11-28T01:50:14.429Z,59.40
2018-11-28T01:52:42.603Z,59.50
2018-11-28T01:55:12.514Z,59.40
2018-11-28T01:57:40.679Z,59.40
2018-11-28T02:00:11.424Z,59.60
2018-11-28T02:02:39.689Z,59.40
2018-11-28T02:05:08.798Z,59.50
2018-11-28T02:07:37.048Z,59.60
2018-11-28T02:10:11.607Z,59.60
2018-11-28T02:12:39.964Z,59.40
2018-11-28T02:15:10.834Z,59.60
2018-11-28T02:17:39.015Z,59.50
2018-11-28T02:20:10.204Z,59.40
2018-11-28T02:22:38.388Z,59.60
2018-11-28T02:25:07.692Z,59.50
2018-11-28T02:27:35.868Z,59.60
2018-11-28T02:30:05.492Z,59.70
2018-11-28T02:32:33.663Z,59.80
2018-11-28T02:35:01.849Z,59.70
2018-11-28T02:37:30.057Z,59.90
2018-11-28T02:39:58.267Z,59.80
2018-11-28T02:42:26.465Z,59.80
2018-11-28T02:44:54.661Z,59.60
2018-11-28T02:47:22.866Z,59.90
2018-11-28T02:49:51.063Z,59.90
2018-11-28T02:52:19.240Z,59.60
2018-11-28T02:54:47.445Z,59.60
2018-11-28T02:57:15.613Z,59.60
2018-11-28T02:59:43.827Z,59.70
2018-11-28T03:02:12.004Z,59.60
2018-11-28T03:04:40.189Z,59.70
2018-11-28T03:07:08.376Z,59.80
2018-11-28T03:09:36.585Z,59.70
2018-11-28T03:12:05.127Z,59.90
2018-11-28T03:14:33.323Z,59.90
2018-11-28T03:17:01.507Z,59.70
2018-11-28T03:19:29.694Z,59.90
2018-11-28T03:21:57.868Z,59.60
2018-11-28T03:24:26.080Z,59.90
2018-11-28T03:26:54.260Z,59.90
2018-11-28T03:29:22.459Z,59.90
2018-11-28T03:31:50.650Z,60.20
2018-11-28T03:34:18.836Z,60.10
2018-11-28T03:36:47.006Z,60.20
2018-11-28T03:39:15.184Z,60.20
2018-11-28T03:41:43.380Z,60.20
2018-11-28T03:44:11.557Z,60.20
2018-11-28T03:46:39.768Z,60.20
2018-11-28T03:49:07.952Z,60.40
2018-11-28T03:51:36.159Z,60.20
2018-11-28T03:54:04.425Z,60.40
2018-11-28T03:56:32.613Z,60.50
2018-11-28T03:59:00.814Z,60.70
2018-11-28T04:01:29.009Z,60.60
2018-11-28T04:03:57.212Z,60.50
2018-11-28T04:06:25.396Z,60.20
2018-11-28T04:08:53.584Z,60.40
2018-11-28T04:11:21.774Z,60.40
2018-11-28T04:13:49.964Z,60.20
2018-11-28T04:16:18.156Z,60.50
2018-11-28T04:18:46.339Z,60.60
2018-11-28T04:21:14.534Z,60.50
2018-11-28T04:23:42.701Z,60.40
2018-11-28T04:26:10.900Z,60.60
2018-11-28T04:28:39.219Z,60.70
2018-11-28T04:31:07.424Z,60.50
2018-11-28T04:33:35.647Z,60.60
2018-11-28T04:36:03.905Z,61.00
2018-11-28T04:38:32.089Z,60.50
2018-11-28T04:41:00.297Z,60.70
2018-11-28T04:43:28.493Z,60.50
2018-11-28T04:45:56.745Z,60.40
2018-11-28T04:48:24.939Z,60.50
2018-11-28T04:50:53.148Z,60.70
2018-11-28T04:53:21.342Z,60.70
2018-11-28T04:55:49.538Z,60.60
2018-11-28T04:58:17.733Z,60.40
2018-11-28T05:00:46.020Z,60.40
2018-11-28T05:03:14.204Z,60.20
2018-11-28T05:05:42.397Z,60.20
2018-11-28T05:08:10.604Z,60.30
2018-11-28T05:10:38.860Z,60.30
2018-11-28T05:13:07.065Z,60.50
2018-11-28T05:15:35.267Z,60.30
2018-11-28T05:18:03.460Z,60.50
2018-11-28T05:20:33.688Z,60.40
2018-11-28T05:23:02.345Z,60.30
2018-11-28T05:25:30.674Z,60.60
2018-11-28T05:27:59.308Z,60.10
2018-11-28T05:30:29.417Z,60.70
2018-11-28T05:32:57.630Z,60.80
2018-11-28T05:35:29.570Z,60.80
2018-11-28T05:37:57.808Z,60.70
2018-11-28T05:40:26.847Z,60.70
2018-11-28T05:42:55.163Z,60.70
2018-11-28T05:45:23.400Z,61.00
2018-11-28T05:47:51.643Z,60.90
2018-11-28T05:50:21.681Z,61.00
2018-11-28T05:52:49.967Z,60.80
2018-11-28T05:55:19.265Z,61.00
2018-11-28T05:57:47.534Z,61.10
2018-11-28T06:00:37.152Z,61.10
2018-11-28T06:03:06.785Z,61.30
2018-11-28T06:05:35.037Z,61.20
2018-11-28T06:08:03.269Z,61.30
2018-11-28T06:10:31.468Z,61.10
2018-11-28T06:12:59.684Z,62.00
2018-11-28T06:15:27.888Z,61.20
2018-11-28T06:17:56.115Z,61.00
2018-11-28T06:20:24.356Z,61.00
2018-11-28T06:22:52.583Z,61.10
2018-11-28T06:25:20.775Z,61.00
2018-11-28T06:27:49.010Z,61.10
2018-11-28T06:30:19.092Z,61.00
2018-11-28T06:32:51.260Z,61.00
2018-11-28T06:35:15.664Z,60.90
2018-11-28T06:37:43.999Z,61.40
2018-11-28T06:40:14.256Z,61.20
2018-11-28T06:42:42.712Z,61.40
2018-11-28T06:45:12.084Z,61.40
2018-11-28T06:47:40.768Z,61.40
2018-11-28T06:50:13.892Z,61.20
2018-11-28T06:52:42.471Z,61.30
2018-11-28T06:55:12.704Z,61.20
2018-11-28T06:57:40.925Z,61.30
2018-11-28T07:00:11.628Z,61.40
2018-11-28T07:02:39.888Z,61.30
2018-11-28T07:05:08.114Z,61.60
2018-11-28T07:07:36.314Z,61.80
2018-11-28T07:10:05.681Z,61.80
2018-11-28T07:12:35.180Z,61.70
2018-11-28T07:15:04.640Z,61.70
2018-11-28T07:17:33.074Z,61.60
2018-11-28T07:20:01.597Z,61.40
2018-11-28T07:22:30.088Z,61.50
2018-11-28T07:24:58.606Z,61.60
2018-11-28T07:27:27.165Z,61.60
2018-11-28T07:29:55.708Z,62.30
2018-11-28T07:32:24.842Z,61.40
2018-11-28T07:34:54.060Z,61.20
2018-11-28T07:37:22.565Z,61.50
2018-11-28T07:39:51.023Z,61.40
2018-11-28T07:42:19.541Z,61.20
2018-11-28T07:44:48.503Z,61.30
2018-11-28T07:47:17.057Z,61.20
2018-11-28T07:49:45.582Z,61.10
2018-11-28T07:52:14.228Z,61.60
2018-11-28T07:54:42.763Z,61.30
2018-11-28T07:57:11.444Z,61.60
2018-11-28T07:59:40.285Z,61.70
2018-11-28T08:02:08.478Z,61.40
2018-11-28T08:04:37.135Z,61.70
2018-11-28T08:07:05.902Z,61.70
2018-11-28T08:09:35.336Z,61.70
2018-11-28T08:12:04.016Z,61.90
2018-11-28T08:14:32.547Z,62.00
2018-11-28T08:17:02.302Z,62.30
2018-11-28T08:19:30.667Z,61.90
2018-11-28T08:21:59.220Z,61.70
2018-11-28T08:24:27.411Z,61.80
2018-11-28T08:26:55.595Z,61.70
2018-11-28T08:29:24.036Z,61.90
2018-11-28T08:31:52.251Z,61.70
2018-11-28T08:34:20.444Z,61.50
2018-11-28T08:36:48.620Z,61.50
2018-11-28T08:39:16.879Z,61.50
2018-11-28T08:41:45.099Z,61.60
2018-11-28T08:44:13.300Z,61.50
2018-11-28T08:46:41.536Z,61.70
2018-11-28T08:49:09.862Z,61.70
2018-11-28T08:51:38.192Z,61.80
2018-11-28T08:54:06.563Z,61.70
2018-11-28T08:56:35.006Z,61.40
2018-11-28T08:59:03.571Z,61.90
2018-11-28T09:01:32.147Z,61.70
2018-11-28T09:04:00.345Z,61.80
2018-11-28T09:06:28.609Z,61.70
2018-11-28T09:08:56.999Z,61.60
2018-11-28T09:11:25.196Z,61.80
2018-11-28T09:13:53.509Z,61.80
2018-11-28T09:16:21.756Z,62.10
2018-11-28T09:18:50.100Z,61.80
2018-11-28T09:21:18.672Z,62.10
2018-11-28T09:23:47.843Z,61.90
2018-11-28T09:26:19.389Z,62.10
2018-11-28T09:28:48.112Z,62.10
2018-11-28T09:31:19.824Z,62.40
2018-11-28T09:33:48.045Z,62.30
2018-11-28T09:36:16.231Z,62.30
2018-11-28T09:38:44.841Z,62.20
2018-11-28T09:41:13.193Z,62.10
2018-11-28T09:43:41.418Z,61.90
2018-11-28T09:46:10.038Z,61.70
2018-11-28T09:48:38.313Z,61.20
2018-11-28T09:51:07.503Z,61.40
2018-11-28T09:53:36.769Z,61.50
2018-11-28T09:56:05.223Z,61.40
2018-11-28T09:58:33.430Z,61.30
2018-11-28T10:01:01.645Z,61.10
2018-11-28T10:03:29.829Z,61.10
2018-11-28T10:05:58.025Z,61.80
2018-11-28T10:08:26.224Z,61.30
2018-11-28T10:10:54.432Z,61.20
2018-11-28T10:13:22.667Z,61.10
2018-11-28T10:15:50.963Z,61.00
2018-11-28T10:18:19.292Z,61.00
2018-11-28T10:20:47.828Z,61.10
2018-11-28T10:23:16.031Z,61.00
2018-11-28T10:25:44.204Z,60.90
2018-11-28T10:28:12.416Z,61.10
2018-11-28T10:30:40.580Z,61.20
2018-11-28T10:33:09.889Z,61.10
2018-11-28T10:35:38.645Z,60.90
2018-11-28T10:38:07.312Z,60.70
2018-11-28T10:40:35.715Z,60.40
2018-11-28T10:43:04.084Z,60.30
2018-11-28T10:45:32.995Z,60.10
2018-11-28T10:48:01.262Z,60.00
2018-11-28T10:50:29.536Z,60.00
2018-11-28T10:52:57.781Z,60.10
2018-11-28T10:55:26.660Z,59.90
2018-11-28T10:57:54.891Z,60.00
2018-11-28T11:00:31.543Z,60.00
2018-11-28T11:03:05.567Z,60.70
2018-11-28T11:05:39.200Z,59.80
2018-11-28T11:08:12.872Z,59.70
2018-11-28T11:10:46.674Z,60.30
2018-11-28T11:13:20.551Z,59.70
2018-11-28T11:15:54.171Z,59.50
2018-11-28T11:18:22.367Z,59.60
2018-11-28T11:20:50.729Z,59.50
2018-11-28T11:23:19.067Z,59.50
2018-11-28T11:25:47.468Z,59.60
2018-11-28T11:28:15.876Z,59.50
2018-11-28T11:30:44.478Z,59.60
2018-11-28T11:33:12.755Z,59.50
2018-11-28T11:35:41.251Z,59.60
2018-11-28T11:38:09.455Z,59.40
2018-11-28T11:40:37.692Z,59.40
2018-11-28T11:43:06.208Z,59.50
2018-11-28T11:45:34.536Z,59.60
2018-11-28T11:48:02.792Z,59.40
2018-11-28T11:50:30.992Z,59.30
2018-11-28T11:52:59.224Z,59.10
2018-11-28T11:55:27.442Z,59.20
2018-11-28T11:57:55.789Z,59.20
2018-11-28T12:00:25.954Z,59.20
2018-11-28T12:03:02.587Z,59.30
2018-11-28T12:05:31.298Z,59.20
2018-11-28T12:07:59.248Z,59.30
2018-11-28T12:10:27.790Z,59.40
2018-11-28T12:12:56.179Z,59.20
2018-11-28T12:15:24.376Z,58.90
2018-11-28T12:17:53.272Z,58.70
2018-11-28T12:20:29.500Z,58.80
2018-11-28T12:22:57.802Z,58.90
2018-11-28T12:25:26.047Z,58.70
2018-11-28T12:27:54.549Z,58.70
2018-11-28T12:30:22.770Z,58.80
2018-11-28T12:32:51.000Z,58.70
2018-11-28T12:35:19.468Z,58.80
2018-11-28T12:37:47.748Z,59.00
2018-11-28T12:40:16.629Z,58.70
2018-11-28T12:42:47.573Z,58.80
2018-11-28T12:45:16.832Z,58.60
2018-11-28T12:47:46.092Z,58.60
2018-11-28T12:50:16.894Z,58.60
2018-11-28T12:52:45.173Z,58.60
2018-11-28T12:55:13.456Z,58.60
2018-11-28T12:57:41.760Z,58.70
2018-11-28T13:00:12.684Z,58.50
2018-11-28T13:02:40.917Z,58.30
2018-11-28T13:05:11.937Z,58.40
2018-11-28T13:07:40.368Z,58.40
2018-11-28T13:10:13.811Z,58.30
2018-11-28T13:12:42.068Z,58.40
2018-11-28T13:15:12.488Z,58.80
2018-11-28T13:17:40.777Z,58.10
2018-11-28T13:20:10.446Z,58.10
2018-11-28T13:22:38.751Z,58.00
2018-11-28T13:25:09.614Z,58.20
2018-11-28T13:27:37.849Z,58.00
2018-11-28T13:30:17.088Z,58.20
2018-11-28T13:32:46.250Z,57.80
2018-11-28T13:35:15.547Z,57.70
2018-11-28T13:37:44.923Z,57.70
2018-11-28T13:40:14.253Z,57.60
2018-11-28T13:42:42.884Z,57.50
2018-11-28T13:45:13.510Z,57.40
2018-11-28T13:47:43.316Z,57.30
2018-11-28T13:50:12.561Z,57.30
2018-11-28T13:52:40.772Z,57.20
2018-11-28T13:57:43.478Z,57.00
2018-11-28T14:00:11.787Z,56.80
2018-11-28T14:02:39.999Z,56.80
2018-11-28T14:05:09.926Z,56.70
2018-11-28T14:07:38.248Z,56.60
2018-11-28T14:10:10.148Z,56.50
2018-11-28T14:12:38.488Z,56.30
2018-11-28T14:15:10.501Z,56.40
2018-11-28T14:17:38.912Z,56.10
2018-11-28T14:20:09.008Z,55.70
2018-11-28T14:22:38.189Z,55.50
2018-11-28T14:25:08.164Z,55.20
2018-11-28T14:27:36.456Z,55.20
2018-11-28T14:30:10.501Z,55.40
2018-11-28T14:32:38.998Z,55.60
2018-11-28T14:35:08.957Z,54.90
2018-11-28T14:37:37.219Z,54.60
2018-11-28T14:40:14.536Z,54.70
2018-11-28T14:42:44.924Z,54.70
2018-11-28T14:45:15.400Z,54.80
2018-11-28T14:47:43.999Z,55.20
2018-11-28T14:50:21.052Z,55.10
2018-11-28T14:52:49.295Z,54.80
2018-11-28T14:55:19.178Z,54.70
2018-11-28T14:57:47.723Z,54.70
2018-11-28T15:00:17.250Z,54.90
2018-11-28T15:02:46.356Z,54.70
2018-11-28T15:05:21.252Z,54.70
2018-11-28T15:07:51.028Z,54.50
2018-11-28T15:10:23.712Z,54.50
2018-11-28T15:12:51.891Z,54.50
2018-11-28T15:15:20.129Z,54.30
2018-11-28T15:17:48.327Z,54.30
2018-11-28T15:20:16.473Z,54.50
2018-11-28T15:22:44.660Z,54.50
2018-11-28T15:25:12.832Z,54.30
2018-11-28T15:27:41.057Z,54.30
2018-11-28T15:30:09.384Z,54.30
2018-11-28T15:32:37.580Z,54.30
2018-11-28T15:35:05.860Z,55.00
2018-11-28T15:37:34.031Z,54.30
2018-11-28T15:40:02.191Z,54.20
2018-11-28T15:42:30.355Z,54.30
2018-11-28T15:44:58.528Z,54.30
2018-11-28T15:47:26.769Z,54.40
2018-11-28T15:49:54.983Z,54.40
2018-11-28T15:52:23.175Z,54.50
2018-11-28T15:54:51.357Z,54.30
2018-11-28T15:57:19.544Z,54.50
2018-11-28T15:59:47.731Z,54.50
2018-11-28T16:02:15.905Z,54.40
2018-11-28T16:04:44.180Z,54.70
2018-11-28T16:07:12.348Z,54.80
2018-11-28T16:09:46.064Z,54.90
2018-11-28T16:12:14.230Z,54.70
2018-11-28T16:14:42.431Z,54.90
2018-11-28T16:17:10.638Z,55.00
2018-11-28T16:19:38.824Z,55.00
2018-11-28T16:22:07.023Z,55.00
2018-11-28T16:24:35.204Z,55.00
2018-11-28T16:27:03.399Z,55.20
2018-11-28T16:29:31.592Z,55.10
2018-11-28T16:31:59.776Z,55.10
2018-11-28T16:34:27.993Z,55.00
2018-11-28T16:36:56.223Z,55.00
2018-11-28T16:39:24.404Z,55.20
2018-11-28T16:41:52.595Z,55.20
2018-11-28T16:44:20.784Z,55.30
2018-11-28T16:46:48.973Z,55.30
2018-11-28T16:49:17.158Z,55.60
2018-11-28T16:51:45.365Z,55.20
2018-11-28T16:54:13.547Z,55.20
2018-11-28T16:56:41.737Z,55.40
2018-11-28T16:59:09.920Z,55.40
2018-11-28T17:01:38.107Z,55.40
2018-11-28T17:04:06.348Z,55.40
2018-11-28T17:06:34.532Z,55.40
2018-11-28T17:09:02.720Z,55.40
2018-11-28T17:11:30.956Z,55.50
2018-11-28T17:13:59.144Z,55.50
2018-11-28T17:16:27.312Z,55.60
2018-11-28T17:18:55.507Z,55.60
2018-11-28T17:21:23.742Z,55.60
2018-11-28T17:23:51.931Z,55.80
2018-11-28T17:26:20.190Z,56.00
2018-11-28T17:28:48.402Z,55.90
2018-11-28T17:31:16.694Z,56.10
2018-11-28T17:33:44.819Z,56.50
2018-11-28T17:36:13.008Z,57.20
2018-11-28T17:38:41.184Z,57.70
2018-11-28T17:41:09.381Z,58.00
2018-11-28T17:43:37.573Z,58.30
2018-11-28T17:46:05.782Z,58.70
2018-11-28T17:48:33.974Z,59.50
2018-11-28T17:51:02.162Z,59.40
2018-11-28T17:53:30.401Z,59.80
2018-11-28T17:55:59.072Z,60.20
2018-11-28T17:58:27.255Z,60.80
2018-11-28T18:00:55.562Z,61.30
2018-11-28T18:03:23.731Z,61.60
2018-11-28T18:05:51.920Z,62.10
2018-11-28T18:08:20.088Z,62.10
2018-11-28T18:10:48.255Z,62.50
2018-11-28T18:13:17.472Z,62.80
2018-11-28T18:15:50.983Z,63.10
2018-11-28T18:18:20.483Z,63.30
2018-11-28T18:20:50.272Z,63.40
2018-11-28T18:23:16.906Z,63.80
2018-11-28T18:25:45.827Z,64.10
2018-11-28T18:28:14.004Z,64.20
2018-11-28T18:30:42.171Z,64.50
2018-11-28T18:33:11.463Z,64.80
2018-11-28T18:35:39.739Z,65.20
2018-11-28T18:38:07.944Z,65.40
2018-11-28T18:40:36.147Z,65.50
2018-11-28T18:43:04.738Z,65.70
2018-11-28T18:45:34.201Z,65.80
2018-11-28T18:48:02.421Z,67.10
2018-11-28T18:50:30.672Z,67.40
2018-11-28T18:52:58.887Z,66.70
2018-11-28T18:55:27.256Z,67.20
2018-11-28T18:57:56.189Z,67.40
2018-11-28T19:00:25.471Z,67.80
2018-11-28T19:02:54.167Z,67.80
2018-11-28T19:05:22.360Z,68.10
2018-11-28T19:07:50.557Z,68.40
2018-11-28T19:10:26.015Z,68.50
2018-11-28T19:12:48.670Z,68.60
2018-11-28T19:15:20.061Z,69.00
2018-11-28T19:17:48.725Z,69.10
2018-11-28T19:20:18.037Z,69.80
2018-11-28T19:22:46.832Z,69.40
2018-11-28T19:25:16.944Z,69.90
2018-11-28T19:27:45.636Z,70.10
2018-11-28T19:30:21.085Z,70.20
2018-11-28T19:32:49.292Z,70.20
2018-11-28T19:35:17.497Z,70.60
2018-11-28T19:37:45.705Z,70.60
2018-11-28T19:40:25.243Z,70.70
2018-11-28T19:42:53.463Z,70.80
2018-11-28T19:45:21.901Z,71.20
2018-11-28T19:47:50.113Z,71.00
2018-11-28T19:50:20.077Z,71.40
2018-11-28T19:52:48.278Z,71.50
2018-11-28T19:55:16.447Z,71.70
2018-11-28T19:57:44.636Z,71.40
2018-11-28T20:00:15.845Z,71.50
2018-11-28T20:02:44.645Z,71.70
2018-11-28T20:05:12.863Z,71.80
2018-11-28T20:07:43.242Z,72.00
2018-11-28T20:10:13.561Z,72.30
2018-11-28T20:12:41.752Z,72.00
2018-11-28T20:15:12.477Z,72.00
2018-11-28T20:17:40.660Z,72.10
2018-11-28T20:20:10.352Z,72.30
2018-11-28T20:22:38.556Z,72.70
2018-11-28T20:25:08.719Z,72.40
2018-11-28T20:27:37.005Z,72.40
2018-11-28T20:30:10.076Z,72.50
2018-11-28T20:32:38.392Z,72.60
2018-11-28T20:35:07.716Z,72.50
2018-11-28T20:37:35.928Z,72.60
2018-11-28T20:40:06.727Z,72.50
2018-11-28T20:42:34.937Z,72.70
2018-11-28T20:45:03.137Z,72.50
2018-11-28T20:47:31.388Z,72.50
2018-11-28T20:49:59.617Z,72.40
2018-11-28T20:52:27.792Z,72.40
2018-11-28T20:54:56.010Z,72.40
2018-11-28T20:57:24.200Z,72.70
2018-11-28T20:59:52.383Z,72.70
2018-11-28T21:02:20.626Z,72.50
2018-11-28T21:04:48.806Z,72.30
2018-11-28T21:07:17.100Z,72.30
2018-11-28T21:09:50.787Z,72.20
2018-11-28T21:12:19.000Z,72.20
2018-11-28T21:14:47.189Z,72.50
2018-11-28T21:17:15.445Z,72.60
2018-11-28T21:19:43.701Z,72.40
2018-11-28T21:22:11.920Z,72.20
2018-11-28T21:24:40.205Z,72.30
2018-11-28T21:27:08.454Z,72.40
2018-11-28T21:29:36.677Z,72.30
2018-11-28T21:32:04.919Z,72.20
2018-11-28T21:34:33.196Z,72.10
2018-11-28T21:37:01.369Z,72.10
2018-11-28T21:39:29.615Z,72.30
2018-11-28T21:41:57.790Z,72.90
2018-11-28T21:44:26.074Z,72.20
2018-11-28T21:46:54.212Z,72.40
2018-11-28T21:49:22.455Z,72.20
2018-11-28T21:51:50.655Z,72.10
2018-11-28T21:54:18.855Z,72.30
2018-11-28T21:56:47.049Z,72.20
2018-11-28T21:59:15.233Z,72.20
2018-11-28T22:01:43.408Z,72.10
2018-11-28T22:04:11.620Z,72.00
2018-11-28T22:06:39.786Z,72.00
2018-11-28T22:09:09.141Z,71.90
2018-11-28T22:11:37.421Z,72.00
2018-11-28T22:14:06.109Z,71.70
2018-11-28T22:16:34.292Z,71.70
2018-11-28T22:19:02.501Z,71.70
2018-11-28T22:21:30.704Z,71.80
2018-11-28T22:23:58.894Z,71.90
2018-11-28T22:26:27.093Z,71.90
2018-11-28T22:28:55.304Z,72.70
2018-11-28T22:31:23.473Z,71.90
2018-11-28T22:33:51.679Z,71.60
2018-11-28T22:36:19.872Z,71.60
2018-11-28T22:38:48.059Z,71.70
2018-11-28T22:41:16.260Z,71.70
2018-11-28T22:43:44.461Z,71.60
2018-11-28T22:46:12.643Z,71.60
2018-11-28T22:48:40.866Z,72.30
2018-11-28T22:51:09.056Z,71.60
2018-11-28T22:53:37.296Z,71.50
2018-11-28T22:56:05.587Z,71.50
2018-11-28T22:58:33.776Z,71.60
2018-11-28T23:01:07.972Z,71.60
2018-11-28T23:03:36.237Z,71.40
2018-11-28T23:06:04.755Z,71.50
2018-11-28T23:08:33.185Z,71.60
2018-11-28T23:11:01.448Z,71.50
2018-11-28T23:13:29.680Z,71.30
2018-11-28T23:15:57.864Z,71.10
2018-11-28T23:18:26.057Z,71.10
2018-11-28T23:20:54.244Z,71.10
2018-11-28T23:23:22.456Z,71.40
2018-11-28T23:25:50.648Z,71.20
2018-11-28T23:28:18.842Z,71.20
2018-11-28T23:30:47.028Z,71.30
2018-11-28T23:33:16.186Z,71.10
2018-11-28T23:35:43.439Z,71.20
2018-11-28T23:38:11.643Z,71.20
2018-11-28T23:40:39.829Z,71.20
2018-11-28T23:43:08.005Z,71.10
2018-11-28T23:45:36.209Z,71.10
2018-11-28T23:48:04.524Z,71.00
2018-11-28T23:50:32.724Z,71.10
2018-11-28T23:53:00.911Z,71.10
2018-11-28T23:55:30.272Z,71.00
2018-11-28T23:57:58.467Z,71.60
